createdAt,value
2019-01-15T00:02:09.644Z,98485.64
2019-01-15T00:04:40.467Z,98489.00
2019-01-15T00:07:11.003Z,98487.55
2019-01-15T00:09:41.712Z,98494.34
2019-01-15T00:12:12.505Z,98488.75
2019-01-15T00:14:43.196Z,98482.38
2019-01-15T00:17:13.700Z,98494.13
2019-01-15T00:19:44.584Z,98507.45
2019-01-15T00:22:15.126Z,98512.95
2019-01-15T00:24:46.959Z,98518.30
2019-01-15T00:27:17.605Z,98518.58
2019-01-15T00:29:48.421Z,98511.52
2019-01-15T00:32:19.078Z,98517.83
2019-01-15T00:34:49.984Z,98517.70
2019-01-15T00:37:20.641Z,98518.64
2019-01-15T00:39:51.204Z,98518.48
2019-01-15T00:42:21.732Z,98521.20
2019-01-15T00:44:52.872Z,98517.17
2019-01-15T00:47:23.390Z,98523.77
2019-01-15T00:49:54.033Z,98523.10
2019-01-15T00:52:24.711Z,98526.87
2019-01-15T00:54:55.229Z,98532.47
2019-01-15T00:57:25.896Z,98533.52
2019-01-15T00:59:56.935Z,98540.67
2019-01-15T01:02:29.212Z,98547.16
2019-01-15T01:05:00.025Z,98548.47
2019-01-15T01:07:30.650Z,98557.98
2019-01-15T01:10:01.180Z,98565.69
2019-01-15T01:12:31.842Z,98567.54
2019-01-15T01:15:03.535Z,98565.69
2019-01-15T01:17:34.001Z,98568.22
2019-01-15T01:20:05.674Z,98571.95
2019-01-15T01:22:36.234Z,98573.36
2019-01-15T01:25:09.062Z,98571.42
2019-01-15T01:27:39.822Z,98580.59
2019-01-15T01:30:23.631Z,98576.27
2019-01-15T01:32:54.567Z,98584.36
2019-01-15T01:35:25.163Z,98579.02
2019-01-15T01:37:56.051Z,98587.50
2019-01-15T01:40:26.852Z,98590.60
2019-01-15T01:42:57.452Z,98594.19
2019-01-15T01:45:27.927Z,98583.29
2019-01-15T01:47:59.103Z,98581.92
2019-01-15T01:50:29.977Z,98587.77
2019-01-15T01:53:00.796Z,98575.22
2019-01-15T01:55:31.319Z,98583.58
2019-01-15T01:58:02.169Z,98577.76
2019-01-15T02:00:32.894Z,98569.44
2019-01-15T02:03:03.697Z,98564.34
2019-01-15T02:05:34.220Z,98568.03
2019-01-15T02:08:05.096Z,98572.73
2019-01-15T02:10:35.961Z,98571.36
2019-01-15T02:13:07.050Z,98570.30
2019-01-15T02:15:37.922Z,98572.95
2019-01-15T02:18:08.429Z,98576.80
2019-01-15T02:20:39.019Z,98576.84
2019-01-15T02:23:09.525Z,98575.37
2019-01-15T02:25:40.072Z,98571.41
2019-01-15T02:28:10.950Z,98581.64
2019-01-15T02:30:41.534Z,98583.56
2019-01-15T02:33:12.067Z,98588.52
2019-01-15T02:35:42.575Z,98581.02
2019-01-15T02:38:13.116Z,98580.12
2019-01-15T02:40:43.951Z,98582.67
2019-01-15T02:43:14.480Z,98576.16
2019-01-15T02:45:45.004Z,98580.10
2019-01-15T02:48:15.586Z,98581.66
2019-01-15T02:50:47.353Z,98584.27
2019-01-15T02:53:18.148Z,98588.63
2019-01-15T03:15:01.447Z,98590.66
2019-01-15T03:17:32.211Z,98590.11
2019-01-15T03:20:03.147Z,98586.83
2019-01-15T03:22:33.991Z,98589.30
2019-01-15T03:25:06.901Z,98585.45
2019-01-15T03:27:37.434Z,98585.16
2019-01-15T03:30:12.041Z,98590.64
2019-01-15T03:32:42.546Z,98581.81
2019-01-15T03:35:13.332Z,98600.57
2019-01-15T03:37:44.403Z,98601.10
2019-01-15T03:40:19.694Z,98601.09
2019-01-15T03:42:50.558Z,98599.30
2019-01-15T03:45:21.561Z,98604.47
2019-01-15T03:47:52.490Z,98615.73
2019-01-15T03:50:23.200Z,98611.48
2019-01-15T03:52:53.970Z,98613.46
2019-01-15T03:55:24.669Z,98631.58
2019-01-15T03:57:55.302Z,98620.71
2019-01-15T04:00:27.294Z,98624.08
2019-01-15T04:02:58.802Z,98625.00
2019-01-15T04:05:29.366Z,98618.41
2019-01-15T04:08:01.057Z,98617.70
2019-01-15T04:10:31.566Z,98612.34
2019-01-15T04:13:02.204Z,98618.09
2019-01-15T04:15:32.815Z,98628.87
2019-01-15T04:18:03.401Z,98636.43
2019-01-15T04:20:34.233Z,98627.63
2019-01-15T04:23:05.046Z,98596.33
2019-01-15T04:25:37.267Z,98574.16
2019-01-15T04:28:08.127Z,98605.80
2019-01-15T04:30:39.017Z,98574.02
2019-01-15T04:33:09.590Z,98574.66
2019-01-15T04:35:40.368Z,98588.47
2019-01-15T04:38:10.958Z,98588.03
2019-01-15T04:40:41.557Z,98587.91
2019-01-15T04:43:19.670Z,98574.19
2019-01-15T04:45:44.652Z,98593.53
2019-01-15T04:48:15.207Z,98591.17
2019-01-15T04:50:46.884Z,98590.86
2019-01-15T04:53:17.411Z,98591.70
2019-01-15T04:55:48.177Z,98593.98
2019-01-15T04:58:18.710Z,98596.05
2019-01-15T05:00:49.476Z,98598.47
2019-01-15T05:03:20.456Z,98601.13
2019-01-15T05:05:51.515Z,98602.73
2019-01-15T05:08:22.519Z,98600.78
2019-01-15T05:10:53.293Z,98602.60
2019-01-15T05:13:27.544Z,98603.61
2019-01-15T05:15:56.408Z,98601.73
2019-01-15T05:18:27.254Z,98610.56
2019-01-15T05:20:57.760Z,98618.50
2019-01-15T05:23:28.505Z,98618.24
2019-01-15T05:25:59.302Z,98615.31
2019-01-15T05:28:30.067Z,98616.73
2019-01-15T05:31:00.918Z,98617.73
2019-01-15T05:33:31.425Z,98621.55
2019-01-15T05:36:02.047Z,98616.14
2019-01-15T05:38:32.556Z,98618.74
2019-01-15T05:41:04.135Z,98628.37
2019-01-15T05:43:36.387Z,98638.64
2019-01-15T05:46:07.061Z,98637.86
2019-01-15T05:48:38.175Z,98645.98
2019-01-15T05:51:36.856Z,98640.36
2019-01-15T05:54:07.906Z,98638.75
2019-01-15T05:56:38.525Z,98642.21
2019-01-15T05:59:09.085Z,98643.98
2019-01-15T06:01:39.667Z,98645.05
2019-01-15T06:04:10.460Z,98640.62
2019-01-15T06:06:40.995Z,98638.63
2019-01-15T06:09:12.752Z,98638.09
2019-01-15T06:11:43.579Z,98640.67
2019-01-15T06:14:14.203Z,98640.44
2019-01-15T06:16:44.746Z,98642.18
2019-01-15T06:19:15.355Z,98639.22
2019-01-15T06:21:47.183Z,98640.78
2019-01-15T06:24:17.740Z,98634.06
2019-01-15T06:26:48.547Z,98635.46
2019-01-15T06:29:19.359Z,98630.09
2019-01-15T06:31:49.858Z,98629.11
2019-01-15T06:34:20.505Z,98632.21
2019-01-15T06:36:51.597Z,98627.35
2019-01-15T06:39:22.215Z,98631.94
2019-01-15T06:41:53.347Z,98628.00
2019-01-15T06:44:23.869Z,98627.63
2019-01-15T06:46:54.677Z,98624.70
2019-01-15T06:49:25.455Z,98625.09
2019-01-15T06:51:56.872Z,98629.38
2019-01-15T06:54:28.996Z,98628.33
2019-01-15T06:56:59.880Z,98628.97
2019-01-15T06:59:30.703Z,98637.15
2019-01-15T07:02:01.540Z,98637.49
2019-01-15T07:04:32.032Z,98640.30
2019-01-15T07:07:02.868Z,98629.05
2019-01-15T07:09:33.506Z,98642.01
2019-01-15T07:12:04.060Z,98642.68
2019-01-15T07:14:34.805Z,98635.72
2019-01-15T07:17:05.579Z,98638.27
2019-01-15T07:19:36.138Z,98641.93
2019-01-15T07:22:06.620Z,98641.80
2019-01-15T07:24:37.203Z,98645.49
2019-01-15T07:27:07.758Z,98642.64
2019-01-15T07:29:38.257Z,98638.15
2019-01-15T07:32:08.784Z,98639.25
2019-01-15T07:34:39.600Z,98642.84
2019-01-15T07:37:10.142Z,98631.94
2019-01-15T07:39:40.688Z,98626.42
2019-01-15T07:42:11.253Z,98629.12
2019-01-15T07:44:41.810Z,98643.27
2019-01-15T07:47:12.657Z,98641.37
2019-01-15T07:49:45.065Z,98644.73
2019-01-15T07:52:15.744Z,98644.22
2019-01-15T07:54:47.967Z,98645.84
2019-01-15T07:57:18.700Z,98639.86
2019-01-15T07:59:49.902Z,98639.66
2019-01-15T08:02:21.084Z,98642.79
2019-01-15T08:04:52.252Z,98647.87
2019-01-15T08:07:22.800Z,98655.17
2019-01-15T08:09:53.914Z,98658.58
2019-01-15T08:12:24.614Z,98655.06
2019-01-15T08:14:55.422Z,98650.05
2019-01-15T08:17:25.946Z,98655.62
2019-01-15T08:19:56.765Z,98658.56
2019-01-15T08:22:27.418Z,98656.08
2019-01-15T08:24:57.966Z,98655.55
2019-01-15T08:27:30.234Z,98658.55
2019-01-15T08:30:01.014Z,98655.81
2019-01-15T08:32:31.795Z,98663.30
2019-01-15T08:35:02.323Z,98666.73
2019-01-15T08:37:32.843Z,98676.14
2019-01-15T08:40:04.713Z,98674.84
2019-01-15T08:42:36.482Z,98678.42
2019-01-15T08:45:08.673Z,98675.16
2019-01-15T08:47:45.713Z,98671.84
2019-01-15T08:50:19.307Z,98671.08
2019-01-15T08:52:51.220Z,98664.63
2019-01-15T08:55:21.729Z,98669.69
2019-01-15T08:57:52.456Z,98672.39
2019-01-15T09:00:23.011Z,98668.55
2019-01-15T09:02:55.606Z,98666.31
2019-01-15T09:05:26.202Z,98667.73
2019-01-15T09:07:57.022Z,98666.61
2019-01-15T09:10:27.868Z,98663.60
2019-01-15T09:12:58.815Z,98659.00
2019-01-15T09:15:29.327Z,98658.41
2019-01-15T09:18:00.022Z,98653.63
2019-01-15T09:20:30.851Z,98648.98
2019-01-15T09:23:01.388Z,98637.19
2019-01-15T09:25:32.034Z,98646.63
2019-01-15T09:28:02.852Z,98642.12
2019-01-15T09:30:33.409Z,98644.44
2019-01-15T09:33:04.557Z,98651.64
2019-01-15T09:35:35.048Z,98651.11
2019-01-15T09:38:08.108Z,98654.28
2019-01-15T09:40:38.886Z,98665.47
2019-01-15T09:43:09.562Z,98674.33
2019-01-15T09:45:40.101Z,98683.73
2019-01-15T09:48:13.732Z,98679.56
2019-01-15T09:50:44.271Z,98683.06
2019-01-15T09:53:15.170Z,98679.20
2019-01-15T09:55:45.872Z,98666.13
2019-01-15T09:58:16.708Z,98668.05
2019-01-15T10:00:48.185Z,98664.66
2019-01-15T10:03:18.879Z,98667.92
2019-01-15T10:05:49.697Z,98659.50
2019-01-15T10:08:20.223Z,98650.80
2019-01-15T10:10:51.065Z,98651.84
2019-01-15T10:13:22.022Z,98658.59
2019-01-15T10:15:53.741Z,98652.81
2019-01-15T10:18:25.779Z,98657.41
2019-01-15T10:20:56.328Z,98658.11
2019-01-15T10:23:27.011Z,98652.89
2019-01-15T10:25:57.553Z,98649.12
2019-01-15T10:28:28.047Z,98650.36
2019-01-15T10:31:49.671Z,98638.53
2019-01-15T10:34:29.502Z,98638.27
2019-01-15T10:36:57.843Z,98633.47
2019-01-15T10:39:28.319Z,98631.73
2019-01-15T10:41:59.121Z,98630.36
2019-01-15T10:44:29.700Z,98617.03
2019-01-15T10:47:00.390Z,98612.23
2019-01-15T10:49:33.721Z,98614.91
2019-01-15T10:52:04.666Z,98606.92
2019-01-15T10:54:35.266Z,98604.20
2019-01-15T10:57:05.785Z,98606.20
2019-01-15T10:59:36.326Z,98599.35
2019-01-15T11:02:07.309Z,98607.34
2019-01-15T11:04:38.063Z,98605.06
2019-01-15T11:07:08.672Z,98596.28
2019-01-15T11:09:39.174Z,98594.19
2019-01-15T11:12:10.430Z,98592.70
2019-01-15T11:14:41.791Z,98592.59
2019-01-15T11:17:12.322Z,98580.91
2019-01-15T11:19:43.019Z,98587.57
2019-01-15T11:22:13.534Z,98584.20
2019-01-15T11:24:44.092Z,98579.88
2019-01-15T11:27:14.874Z,98587.02
2019-01-15T11:29:45.413Z,98569.47
2019-01-15T11:32:16.209Z,98564.02
2019-01-15T11:34:48.163Z,98560.45
2019-01-15T11:37:22.021Z,98565.67
2019-01-15T11:39:52.510Z,98556.75
2019-01-15T11:42:23.072Z,98548.30
2019-01-15T11:44:53.887Z,98550.01
2019-01-15T11:47:24.394Z,98543.59
2019-01-15T11:49:55.203Z,98544.38
2019-01-15T11:52:25.990Z,98543.38
2019-01-15T11:54:56.569Z,98533.85
2019-01-15T11:57:27.059Z,98534.62
2019-01-15T11:59:59.051Z,98530.01
2019-01-15T12:02:51.987Z,98530.39
2019-01-15T12:05:44.314Z,98520.25
2019-01-15T12:08:31.502Z,98522.09
2019-01-15T12:11:19.919Z,98523.27
2019-01-15T12:14:13.477Z,98517.00
2019-01-15T12:17:01.828Z,98516.54
2019-01-15T12:19:54.092Z,98511.04
2019-01-15T12:22:52.798Z,98505.49
2019-01-15T12:25:45.790Z,98507.72
2019-01-15T12:28:35.270Z,98493.47
2019-01-15T12:31:34.402Z,98499.24
2019-01-15T12:34:27.222Z,98499.28
2019-01-15T12:37:09.311Z,98499.66
2019-01-15T12:40:05.070Z,98503.61
2019-01-15T12:43:00.915Z,98503.67
2019-01-15T12:45:49.318Z,98497.52
2019-01-15T12:48:37.826Z,98491.48
2019-01-15T12:51:33.637Z,98490.39
2019-01-15T12:54:20.711Z,98488.45
2019-01-15T12:57:09.181Z,98486.82
2019-01-15T12:59:57.370Z,98480.23
2019-01-15T13:02:45.510Z,98482.48
2019-01-15T13:05:35.660Z,98477.00
2019-01-15T13:08:28.931Z,98479.95
2019-01-15T13:11:17.385Z,98476.11
2019-01-15T13:14:03.340Z,98476.27
2019-01-15T13:16:44.430Z,98481.92
2019-01-15T13:19:39.214Z,98479.47
2019-01-15T13:22:31.915Z,98480.67
2019-01-15T13:25:30.839Z,98483.12
2019-01-15T13:28:19.658Z,98486.66
2019-01-15T13:31:05.106Z,98485.20
2019-01-15T13:34:13.124Z,98484.63
2019-01-15T13:37:02.868Z,98485.69
2019-01-15T13:39:52.472Z,98496.56
2019-01-15T13:42:42.219Z,98493.75
2019-01-15T13:45:31.920Z,98499.27
2019-01-15T13:48:27.951Z,98504.89
2019-01-15T13:51:16.509Z,98511.73
2019-01-15T13:54:13.792Z,98496.16
2019-01-15T13:57:06.515Z,98503.80
2019-01-15T14:00:02.219Z,98497.72
2019-01-15T14:02:50.522Z,98493.50
2019-01-15T14:05:38.579Z,98499.44
2019-01-15T14:08:28.030Z,98488.43
2019-01-15T14:11:23.663Z,98487.80
2019-01-15T14:14:23.870Z,98490.81
2019-01-15T14:17:21.199Z,98491.95
2019-01-15T14:20:25.958Z,98491.63
2019-01-15T14:23:15.719Z,98489.02
2019-01-15T14:26:08.415Z,98488.94
2019-01-15T14:28:47.347Z,98477.76
2019-01-15T14:31:35.735Z,98473.09
2019-01-15T14:34:40.844Z,98471.77
2019-01-15T14:37:36.259Z,98476.46
2019-01-15T14:40:31.436Z,98475.52
2019-01-15T14:43:18.704Z,98470.89
2019-01-15T14:46:00.964Z,98477.22
2019-01-15T14:49:08.600Z,98471.38
2019-01-15T14:52:00.821Z,98474.17
2019-01-15T14:55:02.744Z,98470.84
2019-01-15T14:57:51.327Z,98477.60
2019-01-15T15:00:56.260Z,98481.67
2019-01-15T15:03:35.378Z,98492.64
2019-01-15T15:06:25.213Z,98491.80
2019-01-15T15:09:13.947Z,98494.78
2019-01-15T15:11:57.737Z,98497.52
2019-01-15T15:14:45.981Z,98491.02
2019-01-15T15:17:35.720Z,98489.69
2019-01-15T15:20:34.194Z,98493.95
2019-01-15T15:23:29.713Z,98496.38
2019-01-15T15:26:23.666Z,98493.89
2019-01-15T15:29:25.512Z,98488.98
2019-01-15T15:32:05.066Z,98486.06
2019-01-15T15:35:01.160Z,98493.52
2019-01-15T15:38:04.981Z,98484.47
2019-01-15T15:41:00.452Z,98485.63
2019-01-15T15:43:40.598Z,98479.89
2019-01-15T15:46:29.153Z,98477.03
2019-01-15T15:49:20.267Z,98476.07
2019-01-15T15:52:16.201Z,98473.11
2019-01-15T15:55:04.581Z,98472.53
2019-01-15T15:58:03.170Z,98468.41
2019-01-15T16:00:55.395Z,98468.37
2019-01-15T16:03:43.894Z,98478.58
2019-01-15T16:06:39.681Z,98479.47
2019-01-15T16:09:12.266Z,98482.05
2019-01-15T16:12:17.037Z,98483.49
2019-01-15T16:15:20.045Z,98485.03
2019-01-15T16:18:09.867Z,98483.21
2019-01-15T16:20:50.640Z,98483.91
2019-01-15T16:23:33.644Z,98480.81
2019-01-15T16:26:26.115Z,98482.00
2019-01-15T16:29:21.988Z,98476.13
2019-01-15T16:32:24.501Z,98476.80
2019-01-15T16:35:12.493Z,98476.36
2019-01-15T16:37:58.623Z,98475.60
2019-01-15T16:40:48.296Z,98469.33
2019-01-15T16:43:56.229Z,98460.77
2019-01-15T16:46:45.264Z,98458.43
2019-01-15T16:49:42.612Z,98454.59
2019-01-15T16:52:44.322Z,98457.97
2019-01-15T16:55:33.055Z,98463.40
2019-01-15T16:58:33.377Z,98458.95
2019-01-15T17:01:23.144Z,98459.72
2019-01-15T17:04:21.910Z,98456.68
2019-01-15T17:07:20.745Z,98453.70
2019-01-15T17:10:16.378Z,98449.37
2019-01-15T17:13:08.622Z,98449.51
2019-01-15T17:15:56.739Z,98446.33
2019-01-15T17:18:44.579Z,98445.98
2019-01-15T17:21:52.286Z,98445.38
2019-01-15T17:24:50.597Z,98441.64
2019-01-15T17:27:38.748Z,98440.88
2019-01-15T17:30:24.418Z,98441.56
2019-01-15T17:33:14.240Z,98444.98
2019-01-15T17:36:02.812Z,98442.49
2019-01-15T17:39:07.485Z,98454.07
2019-01-15T17:42:02.613Z,98449.48
2019-01-15T17:44:55.564Z,98444.58
2019-01-15T17:48:02.907Z,98447.39
2019-01-15T17:53:34.243Z,98450.03
2019-01-15T17:56:30.564Z,98453.83
2019-01-15T17:59:20.945Z,98454.78
2019-01-15T18:02:09.230Z,98452.15
2019-01-15T18:05:04.887Z,98453.46
2019-01-15T18:07:53.252Z,98455.39
2019-01-15T18:10:43.291Z,98459.13
2019-01-15T18:13:48.050Z,98453.58
2019-01-15T18:16:48.540Z,98455.02
2019-01-15T18:19:34.738Z,98451.89
2019-01-15T18:22:24.526Z,98457.18
2019-01-15T18:25:13.052Z,98445.70
2019-01-15T18:28:02.751Z,98453.19
2019-01-15T18:31:01.376Z,98461.70
2019-01-15T18:33:53.734Z,98456.52
2019-01-15T18:36:40.789Z,98461.28
2019-01-15T18:39:42.552Z,98466.92
2019-01-15T18:42:38.297Z,98459.14
2019-01-15T18:45:28.997Z,98456.54
2019-01-15T18:48:18.708Z,98452.92
2019-01-15T18:51:07.166Z,98454.37
2019-01-15T18:54:11.870Z,98455.56
2019-01-15T18:56:52.344Z,98460.96
2019-01-15T18:59:41.186Z,98457.45
2019-01-15T19:02:29.855Z,98455.58
2019-01-15T19:05:07.699Z,98449.89
2019-01-15T19:08:01.306Z,98455.19
2019-01-15T19:11:06.110Z,98451.95
2019-01-15T19:13:55.806Z,98458.97
2019-01-15T19:17:03.475Z,98460.93
2019-01-15T19:19:58.150Z,98460.22
2019-01-15T19:22:47.788Z,98456.91
2019-01-15T19:25:35.758Z,98461.46
2019-01-15T19:28:25.725Z,98457.42
2019-01-15T19:31:27.521Z,98461.66
2019-01-15T19:34:17.152Z,98453.41
2019-01-15T19:37:08.382Z,98456.53
2019-01-15T19:39:45.430Z,98459.23
2019-01-15T19:42:34.142Z,98453.72
2019-01-15T19:45:23.600Z,98449.70
2019-01-15T19:48:08.772Z,98457.23
2019-01-15T19:51:01.195Z,98451.50
2019-01-15T19:53:50.788Z,98449.88
2019-01-15T19:56:59.967Z,98445.61
2019-01-15T19:59:52.703Z,98450.23
2019-01-15T20:02:31.864Z,98448.08
2019-01-15T20:05:20.187Z,98444.84
2019-01-15T20:08:08.703Z,98449.40
2019-01-15T20:11:13.395Z,98455.91
2019-01-15T20:14:01.934Z,98451.58
2019-01-15T20:16:50.399Z,98456.95
2019-01-15T20:19:40.228Z,98460.85
2019-01-15T20:22:36.396Z,98464.30
2019-01-15T20:25:29.463Z,98466.69
2019-01-15T20:28:28.374Z,98467.48
2019-01-15T20:31:30.545Z,98467.41
2019-01-15T20:34:19.163Z,98468.48
2019-01-15T20:37:07.876Z,98470.89
2019-01-15T20:40:03.451Z,98465.41
2019-01-15T20:42:53.520Z,98461.92
2019-01-15T20:45:55.235Z,98461.11
2019-01-15T20:48:52.826Z,98460.71
2019-01-15T20:51:57.654Z,98458.64
2019-01-15T20:54:59.492Z,98456.38
2019-01-15T20:58:03.240Z,98457.38
2019-01-15T21:01:08.249Z,98455.48
2019-01-15T21:04:03.481Z,98459.14
2019-01-15T21:06:52.209Z,98454.53
2019-01-15T21:09:32.466Z,98458.97
2019-01-15T21:12:28.414Z,98453.51
2019-01-15T21:15:24.470Z,98457.25
2019-01-15T21:18:29.613Z,98455.82
2019-01-15T21:21:28.045Z,98450.23
2019-01-15T21:24:26.786Z,98453.34
2019-01-15T21:27:19.353Z,98450.75
2019-01-15T21:30:05.333Z,98444.83
2019-01-15T21:32:53.601Z,98437.95
2019-01-15T21:36:04.455Z,98450.99
2019-01-15T21:38:54.010Z,98448.16
2019-01-15T21:41:52.946Z,98447.91
2019-01-15T21:44:42.675Z,98449.41
2019-01-15T21:47:40.319Z,98444.71
2019-01-15T21:50:27.554Z,98451.97
2019-01-15T21:53:23.451Z,98450.58
2019-01-15T21:56:12.914Z,98451.36
2019-01-15T21:59:08.539Z,98450.70
2019-01-15T22:01:57.538Z,98450.11
2019-01-15T22:04:47.478Z,98455.41
2019-01-15T22:07:40.148Z,98448.13
2019-01-15T22:10:32.966Z,98446.61
2019-01-15T22:13:23.521Z,98443.23
2019-01-15T22:16:13.349Z,98439.13
2019-01-15T22:19:07.064Z,98444.45
2019-01-15T22:21:46.387Z,98441.38
2019-01-15T22:24:34.776Z,98435.69
2019-01-15T22:27:30.537Z,98433.38
2019-01-15T22:30:22.866Z,98428.92
2019-01-15T22:33:14.120Z,98424.39
2019-01-15T22:36:02.306Z,98420.44
2019-01-15T22:39:09.922Z,98428.22
2019-01-15T22:41:58.855Z,98421.87
2019-01-15T22:45:03.529Z,98417.64
2019-01-15T22:47:55.097Z,98419.05
2019-01-15T22:50:39.276Z,98412.34
2019-01-15T22:53:35.159Z,98407.48
2019-01-15T22:56:12.470Z,98404.13
2019-01-15T22:58:53.319Z,98408.36
2019-01-15T23:02:05.977Z,98403.06
2019-01-15T23:05:13.533Z,98401.23
2019-01-15T23:08:17.985Z,98397.61
2019-01-15T23:11:20.781Z,98403.26
2019-01-15T23:14:06.062Z,98392.00
2019-01-15T23:17:10.883Z,98393.92
2019-01-15T23:20:09.980Z,98388.36
2019-01-15T23:23:05.685Z,98393.03
2019-01-15T23:25:58.160Z,98390.34
2019-01-15T23:28:47.520Z,98387.05
2019-01-15T23:31:35.978Z,98381.00
2019-01-15T23:34:24.873Z,98385.59
2019-01-15T23:37:15.194Z,98381.17
2019-01-15T23:40:18.713Z,98380.38
2019-01-15T23:43:07.457Z,98375.84
2019-01-15T23:45:55.608Z,98378.84
2019-01-15T23:48:37.014Z,98376.31
2019-01-15T23:51:21.356Z,98374.90
2019-01-15T23:54:11.546Z,98370.86
2019-01-15T23:57:07.024Z,98366.91
2019-01-15T23:59:54.597Z,98364.42
